createdAt,value
2022-11-29T00:01:38.765Z,20.10
2022-11-29T00:04:07.324Z,20.10
2022-11-29T00:06:36.356Z,20.10
2022-11-29T00:09:07.785Z,20.10
2022-11-29T00:11:58.873Z,20.10
2022-11-29T00:14:28.780Z,20.10
2022-11-29T00:16:59.234Z,20.10
2022-11-29T00:19:27.580Z,20.10
2022-11-29T00:21:55.715Z,20.10
2022-11-29T00:24:24.029Z,20.10
2022-11-29T00:26:53.529Z,20.10
2022-11-29T00:29:21.948Z,20.10
2022-11-29T00:31:50.018Z,20.10
2022-11-29T00:34:18.116Z,20.10
2022-11-29T00:36:46.215Z,20.10
2022-11-29T00:39:16.257Z,20.10
2022-11-29T00:41:44.520Z,20.10
2022-11-29T00:44:19.606Z,20.10
2022-11-29T00:46:48.546Z,20.10
2022-11-29T00:49:16.875Z,20.10
2022-11-29T00:51:45.042Z,20.10
2022-11-29T00:54:13.261Z,20.10
2022-11-29T00:56:41.382Z,20.10
2022-11-29T00:59:09.490Z,20.10
2022-11-29T01:01:39.033Z,20.10
2022-11-29T01:04:07.219Z,20.10
2022-11-29T01:06:35.321Z,20.10
2022-11-29T01:09:03.413Z,20.10
2022-11-29T01:11:31.985Z,20.10
2022-11-29T01:14:01.649Z,20.10
2022-11-29T01:16:31.803Z,20.10
2022-11-29T01:19:01.632Z,20.10
2022-11-29T01:21:30.393Z,20.10
2022-11-29T01:23:58.555Z,20.10
2022-11-29T01:26:28.732Z,20.10
2022-11-29T01:28:58.608Z,20.10
2022-11-29T01:31:28.524Z,20.10
2022-11-29T01:33:56.996Z,20.10
2022-11-29T01:36:26.975Z,20.10
2022-11-29T01:38:55.619Z,20.10
2022-11-29T01:41:28.319Z,20.10
2022-11-29T01:44:03.371Z,20.10
2022-11-29T01:46:33.245Z,20.10
2022-11-29T01:49:05.485Z,20.10
2022-11-29T01:51:37.059Z,20.10
2022-11-29T01:54:06.103Z,20.10
2022-11-29T01:56:35.705Z,20.10
2022-11-29T01:59:07.726Z,20.10
2022-11-29T02:01:37.168Z,20.10
2022-11-29T02:04:05.887Z,20.10
2022-11-29T02:06:37.117Z,20.10
2022-11-29T02:09:05.839Z,20.10
2022-11-29T02:11:57.394Z,20.10
2022-11-29T02:14:46.445Z,20.10
2022-11-29T02:17:26.288Z,20.10
2022-11-29T02:20:21.159Z,20.10
2022-11-29T02:22:57.357Z,20.10
2022-11-29T02:25:45.098Z,20.10
2022-11-29T02:28:55.281Z,20.10
2022-11-29T02:31:56.497Z,20.10
2022-11-29T02:34:57.397Z,20.10
2022-11-29T02:37:48.080Z,20.10
2022-11-29T02:40:49.955Z,20.10
2022-11-29T02:43:37.755Z,20.10
2022-11-29T02:46:22.999Z,20.10
2022-11-29T02:48:58.750Z,20.10
2022-11-29T02:51:35.758Z,20.10
2022-11-29T02:54:09.210Z,20.10
2022-11-29T02:56:44.380Z,20.10
2022-11-29T02:59:18.162Z,20.10
2022-11-29T03:01:54.952Z,20.10
2022-11-29T03:04:32.514Z,20.10
2022-11-29T03:07:07.046Z,20.10
2022-11-29T03:09:42.869Z,20.10
2022-11-29T03:12:20.345Z,20.10
2022-11-29T03:14:58.045Z,20.10
2022-11-29T03:17:40.785Z,20.10
2022-11-29T03:20:23.552Z,20.10
2022-11-29T03:23:14.817Z,20.10
2022-11-29T03:25:47.388Z,20.10
2022-11-29T03:28:19.959Z,20.00
2022-11-29T03:30:55.064Z,20.00
2022-11-29T03:33:29.130Z,20.10
2022-11-29T03:36:05.495Z,20.10
2022-11-29T03:38:40.803Z,20.00
2022-11-29T03:41:21.435Z,20.00
2022-11-29T03:43:56.194Z,20.00
2022-11-29T03:46:31.816Z,20.00
2022-11-29T03:49:04.207Z,20.00
2022-11-29T03:51:44.420Z,20.00
2022-11-29T03:54:18.970Z,20.00
2022-11-29T03:56:47.664Z,20.00
2022-11-29T03:59:29.334Z,20.00
2022-11-29T04:02:12.028Z,20.00
2022-11-29T04:05:12.721Z,20.00
2022-11-29T04:08:01.772Z,20.00
2022-11-29T04:10:59.142Z,20.00
2022-11-29T04:13:53.849Z,20.00
2022-11-29T04:17:06.025Z,20.00
2022-11-29T04:19:59.444Z,20.00
2022-11-29T04:22:56.371Z,20.00
2022-11-29T04:25:49.813Z,20.00
2022-11-29T04:28:39.416Z,20.00
2022-11-29T04:31:18.460Z,20.00
2022-11-29T04:34:19.640Z,20.00
2022-11-29T04:37:08.795Z,20.00
2022-11-29T04:39:59.897Z,20.00
2022-11-29T04:42:53.437Z,20.10
2022-11-29T04:46:05.839Z,20.00
2022-11-29T04:49:03.638Z,20.10
2022-11-29T04:51:49.580Z,20.10
2022-11-29T04:54:26.195Z,20.00
2022-11-29T04:56:58.605Z,20.00
2022-11-29T04:59:34.025Z,20.10
2022-11-29T05:02:11.053Z,20.10
2022-11-29T05:04:49.908Z,20.10
2022-11-29T05:07:30.744Z,20.10
2022-11-29T05:10:07.322Z,20.10
2022-11-29T05:12:42.675Z,20.10
2022-11-29T05:15:40.458Z,20.10
2022-11-29T05:18:19.857Z,20.10
2022-11-29T05:20:54.062Z,20.10
2022-11-29T05:23:35.713Z,20.10
2022-11-29T05:26:10.500Z,20.10
2022-11-29T05:28:47.286Z,20.10
2022-11-29T05:31:30.999Z,20.10
2022-11-29T05:34:24.136Z,20.00
2022-11-29T05:37:02.500Z,20.00
2022-11-29T05:39:43.139Z,20.10
2022-11-29T05:42:34.844Z,20.10
2022-11-29T05:45:09.063Z,20.00
2022-11-29T05:47:47.957Z,20.10
2022-11-29T05:50:22.830Z,20.10
2022-11-29T05:52:58.047Z,20.10
2022-11-29T05:55:41.551Z,20.10
2022-11-29T05:58:17.367Z,20.10
2022-11-29T06:00:50.839Z,20.10
2022-11-29T06:03:30.456Z,20.10
2022-11-29T06:06:02.472Z,20.10
2022-11-29T06:08:38.343Z,20.10
2022-11-29T06:11:14.979Z,20.10
2022-11-29T06:14:00.621Z,20.10
2022-11-29T06:16:53.276Z,20.10
2022-11-29T06:19:50.387Z,20.10
2022-11-29T06:22:46.122Z,20.10
2022-11-29T06:25:33.987Z,20.10
2022-11-29T06:28:28.497Z,20.10
2022-11-29T06:31:03.994Z,20.20
2022-11-29T06:33:40.788Z,20.10
2022-11-29T06:36:19.134Z,20.10
2022-11-29T06:38:47.847Z,20.10
2022-11-29T06:41:20.978Z,20.10
2022-11-29T06:43:49.756Z,20.10
2022-11-29T06:46:26.825Z,20.10
2022-11-29T06:49:02.683Z,20.10
2022-11-29T06:51:42.041Z,20.10
2022-11-29T06:54:29.746Z,20.10
2022-11-29T06:57:07.211Z,20.10
2022-11-29T06:59:48.791Z,20.10
2022-11-29T07:02:38.088Z,20.10
2022-11-29T07:05:15.872Z,20.10
2022-11-29T07:07:47.110Z,20.10
2022-11-29T07:10:17.486Z,20.20
2022-11-29T07:12:46.538Z,20.20
2022-11-29T07:15:17.016Z,20.20
2022-11-29T07:17:54.075Z,20.20
2022-11-29T07:20:33.686Z,20.20
2022-11-29T07:23:12.347Z,20.20
2022-11-29T07:25:50.589Z,20.20
2022-11-29T07:28:30.530Z,20.20
2022-11-29T07:31:06.318Z,20.20
2022-11-29T07:33:50.236Z,20.20
2022-11-29T07:36:27.088Z,20.20
2022-11-29T07:39:12.263Z,20.20
2022-11-29T07:41:49.101Z,20.20
2022-11-29T07:44:30.459Z,20.30
2022-11-29T07:46:58.696Z,20.20
2022-11-29T07:49:26.928Z,20.30
2022-11-29T07:51:55.658Z,20.30
2022-11-29T07:54:25.494Z,20.30
2022-11-29T07:56:53.686Z,20.30
2022-11-29T07:59:21.880Z,20.30
2022-11-29T08:01:50.080Z,20.30
2022-11-29T08:04:18.281Z,20.30
2022-11-29T08:06:46.488Z,20.30
2022-11-29T08:09:14.645Z,20.40
2022-11-29T08:11:44.799Z,20.40
2022-11-29T08:14:13.012Z,20.40
2022-11-29T08:16:41.202Z,20.40
2022-11-29T08:19:09.531Z,20.40
2022-11-29T08:21:37.697Z,20.40
2022-11-29T08:24:06.521Z,20.50
2022-11-29T08:26:35.360Z,20.50
2022-11-29T08:29:04.864Z,20.50
2022-11-29T08:31:33.076Z,20.50
2022-11-29T08:34:01.249Z,20.50
2022-11-29T08:36:29.489Z,20.50
2022-11-29T08:39:04.716Z,20.50
2022-11-29T08:41:37.268Z,20.60
2022-11-29T08:44:07.541Z,20.60
2022-11-29T08:46:54.079Z,20.60
2022-11-29T08:49:22.274Z,20.60
2022-11-29T08:51:53.247Z,20.60
2022-11-29T08:54:20.423Z,20.60
2022-11-29T08:59:38.178Z,20.60
2022-11-29T09:02:06.357Z,20.60
2022-11-29T09:04:34.578Z,20.60
2022-11-29T09:07:02.739Z,20.60
2022-11-29T09:09:30.919Z,20.60
2022-11-29T09:11:59.101Z,20.60
2022-11-29T09:14:27.451Z,20.70
2022-11-29T09:16:57.042Z,20.70
2022-11-29T09:19:25.279Z,20.70
2022-11-29T09:21:56.422Z,20.70
2022-11-29T09:24:24.596Z,20.70
2022-11-29T09:26:53.074Z,20.70
2022-11-29T09:29:21.454Z,20.70
2022-11-29T09:31:49.772Z,20.70
2022-11-29T09:34:19.782Z,20.70
2022-11-29T09:36:48.238Z,20.70
2022-11-29T09:39:16.519Z,20.70
2022-11-29T09:42:09.649Z,20.70
2022-11-29T09:44:50.042Z,20.70
2022-11-29T09:47:33.163Z,20.70
2022-11-29T09:50:19.906Z,20.70
2022-11-29T09:52:56.465Z,20.70
2022-11-29T09:55:36.570Z,20.70
2022-11-29T09:58:07.114Z,20.70
2022-11-29T10:00:44.291Z,20.70
2022-11-29T10:03:19.307Z,20.70
2022-11-29T10:05:52.540Z,20.70
2022-11-29T10:08:28.435Z,20.70
2022-11-29T10:11:05.111Z,20.70
2022-11-29T10:13:36.492Z,20.70
2022-11-29T10:16:12.975Z,20.70
2022-11-29T10:18:49.378Z,20.70
2022-11-29T10:21:23.737Z,20.70
2022-11-29T10:23:55.248Z,20.80
2022-11-29T10:26:25.894Z,20.80
2022-11-29T10:28:57.981Z,20.80
2022-11-29T10:31:28.721Z,20.80
2022-11-29T10:34:00.812Z,20.80
2022-11-29T10:36:35.349Z,20.80
2022-11-29T10:39:11.457Z,20.80
2022-11-29T10:41:42.462Z,20.80
2022-11-29T10:44:14.277Z,20.80
2022-11-29T10:46:42.621Z,20.80
2022-11-29T10:49:14.923Z,20.80
2022-11-29T10:51:44.622Z,20.80
2022-11-29T10:54:26.070Z,20.70
2022-11-29T10:56:54.760Z,20.70
2022-11-29T10:59:24.577Z,20.70
2022-11-29T11:01:53.125Z,20.70
2022-11-29T11:04:29.943Z,20.70
2022-11-29T11:07:02.367Z,20.70
2022-11-29T11:09:35.749Z,20.70
2022-11-29T11:12:07.030Z,20.70
2022-11-29T11:14:37.577Z,20.70
2022-11-29T11:17:26.091Z,20.70
2022-11-29T11:20:00.886Z,20.70
2022-11-29T11:22:32.605Z,20.70
2022-11-29T11:25:02.937Z,20.70
2022-11-29T11:27:33.994Z,20.80
2022-11-29T11:30:04.157Z,20.80
2022-11-29T11:32:32.389Z,20.80
2022-11-29T11:35:02.033Z,20.80
2022-11-29T11:37:33.369Z,20.80
2022-11-29T11:40:20.084Z,20.80
2022-11-29T11:42:48.527Z,20.80
2022-11-29T11:45:33.393Z,20.90
2022-11-29T11:48:05.408Z,20.90
2022-11-29T11:50:36.545Z,20.90
2022-11-29T11:53:18.370Z,20.90
2022-11-29T11:55:56.527Z,20.90
2022-11-29T11:58:28.041Z,20.90
2022-11-29T12:01:06.187Z,20.90
2022-11-29T12:03:40.905Z,20.90
2022-11-29T12:06:43.493Z,20.90
2022-11-29T12:09:26.316Z,20.90
2022-11-29T12:12:01.434Z,20.90
2022-11-29T12:14:43.870Z,21.00
2022-11-29T12:17:20.780Z,21.00
2022-11-29T12:20:02.171Z,21.00
2022-11-29T12:22:36.712Z,21.00
2022-11-29T12:25:13.649Z,21.00
2022-11-29T12:27:44.374Z,21.00
2022-11-29T12:30:14.941Z,21.00
2022-11-29T12:33:04.436Z,21.00
2022-11-29T12:36:05.896Z,21.00
2022-11-29T12:38:54.311Z,21.00
2022-11-29T12:41:36.985Z,21.00
2022-11-29T12:44:16.945Z,21.00
2022-11-29T12:46:54.419Z,21.00
2022-11-29T12:49:40.784Z,21.00
2022-11-29T12:52:16.196Z,21.00
2022-11-29T12:54:59.595Z,21.00
2022-11-29T12:57:44.096Z,21.00
2022-11-29T13:00:14.718Z,21.00
2022-11-29T13:02:54.141Z,21.00
2022-11-29T13:05:37.805Z,21.00
2022-11-29T13:08:24.718Z,21.00
2022-11-29T13:11:05.169Z,20.90
2022-11-29T13:13:40.809Z,20.90
2022-11-29T13:16:30.637Z,20.90
2022-11-29T13:19:06.087Z,20.90
2022-11-29T13:21:39.798Z,20.90
2022-11-29T13:24:11.823Z,20.90
2022-11-29T13:26:41.059Z,20.90
2022-11-29T13:29:15.879Z,20.90
2022-11-29T13:31:45.041Z,20.80
2022-11-29T13:34:18.019Z,20.80
2022-11-29T13:36:54.438Z,20.80
2022-11-29T13:39:45.175Z,20.80
2022-11-29T13:42:22.022Z,20.80
2022-11-29T13:44:59.691Z,20.80
2022-11-29T13:47:28.193Z,20.80
2022-11-29T13:50:02.621Z,20.80
2022-11-29T13:52:39.379Z,20.80
2022-11-29T13:55:28.907Z,20.90
2022-11-29T13:58:19.171Z,20.90
2022-11-29T14:00:53.092Z,20.90
2022-11-29T14:03:34.516Z,20.90
2022-11-29T14:06:12.051Z,20.90
2022-11-29T14:11:35.718Z,21.00
2022-11-29T14:14:06.802Z,21.00
2022-11-29T14:16:40.224Z,21.00
2022-11-29T14:19:22.670Z,21.00
2022-11-29T14:22:33.290Z,21.00
2022-11-29T14:28:40.579Z,21.00
2022-11-29T14:31:10.077Z,21.00
2022-11-29T14:33:59.079Z,21.00
2022-11-29T14:36:39.476Z,21.00
2022-11-29T14:39:31.401Z,21.00
2022-11-29T14:42:16.973Z,21.00
2022-11-29T14:44:47.988Z,21.00
2022-11-29T14:47:29.703Z,21.10
2022-11-29T14:50:01.052Z,21.10
2022-11-29T14:52:32.669Z,21.10
2022-11-29T14:55:04.387Z,21.10
2022-11-29T14:58:14.551Z,21.10
2022-11-29T15:00:55.422Z,21.10
2022-11-29T15:03:32.898Z,21.00
2022-11-29T15:06:13.111Z,21.00
2022-11-29T15:08:50.183Z,21.10
2022-11-29T15:11:31.258Z,21.10
2022-11-29T15:14:05.652Z,21.10
2022-11-29T15:16:48.019Z,21.10
2022-11-29T15:19:56.222Z,21.10
2022-11-29T15:22:29.624Z,21.10
2022-11-29T15:25:01.514Z,21.10
2022-11-29T15:27:30.468Z,21.10
2022-11-29T15:29:59.929Z,21.10
2022-11-29T15:32:31.072Z,21.10
2022-11-29T15:34:59.685Z,21.10
2022-11-29T15:37:44.592Z,21.10
2022-11-29T15:40:15.679Z,21.10
2022-11-29T15:42:47.360Z,21.10
2022-11-29T15:45:27.335Z,21.10
2022-11-29T15:47:56.227Z,21.10
2022-11-29T15:50:26.719Z,21.10
2022-11-29T15:53:01.686Z,21.10
2022-11-29T15:55:30.699Z,21.10
2022-11-29T15:58:08.335Z,21.10
2022-11-29T16:00:37.939Z,21.10
2022-11-29T16:03:08.556Z,21.10
2022-11-29T16:05:38.812Z,21.10
2022-11-29T16:08:14.623Z,21.10
2022-11-29T16:10:47.402Z,21.10
2022-11-29T16:13:33.008Z,21.10
2022-11-29T16:16:15.856Z,21.10
2022-11-29T16:18:45.805Z,21.10
2022-11-29T16:21:26.158Z,21.20
2022-11-29T16:23:56.678Z,21.20
2022-11-29T16:26:29.456Z,21.10
2022-11-29T16:28:58.463Z,21.10
2022-11-29T16:31:34.010Z,21.10
2022-11-29T16:34:09.633Z,21.10
2022-11-29T16:36:38.281Z,21.10
2022-11-29T16:39:17.999Z,21.10
2022-11-29T16:42:03.619Z,21.10
2022-11-29T16:44:54.873Z,21.10
2022-11-29T16:47:25.179Z,21.10
2022-11-29T16:50:14.552Z,21.00
2022-11-29T16:52:42.839Z,21.00
2022-11-29T16:55:12.770Z,21.00
2022-11-29T16:57:41.468Z,21.00
2022-11-29T17:00:22.452Z,21.00
2022-11-29T17:02:50.965Z,21.00
2022-11-29T17:05:19.168Z,21.00
2022-11-29T17:07:47.862Z,21.00
2022-11-29T17:10:20.403Z,21.00
2022-11-29T17:12:48.691Z,20.90
2022-11-29T17:15:16.975Z,20.90
2022-11-29T17:17:45.164Z,20.90
2022-11-29T17:20:14.624Z,20.90
2022-11-29T17:22:43.098Z,20.90
2022-11-29T17:25:11.900Z,20.90
2022-11-29T17:27:41.535Z,20.90
2022-11-29T17:30:12.341Z,20.90
2022-11-29T17:32:40.485Z,20.90
2022-11-29T17:35:09.116Z,20.90
2022-11-29T17:37:37.274Z,20.80
2022-11-29T17:40:06.055Z,20.80
2022-11-29T17:42:34.231Z,20.80
2022-11-29T17:45:04.169Z,20.80
2022-11-29T17:47:33.703Z,20.80
2022-11-29T17:50:01.921Z,20.80
2022-11-29T17:52:30.121Z,20.80
2022-11-29T17:54:58.296Z,20.80
2022-11-29T17:57:26.475Z,20.80
2022-11-29T17:59:54.752Z,20.80
2022-11-29T18:02:24.362Z,20.80
2022-11-29T18:04:52.589Z,20.80
2022-11-29T18:07:20.820Z,20.70
2022-11-29T18:09:49.280Z,20.70
2022-11-29T18:12:17.520Z,20.70
2022-11-29T18:14:45.681Z,20.70
2022-11-29T18:17:13.942Z,20.70
2022-11-29T18:19:43.696Z,20.70
2022-11-29T18:22:12.058Z,20.70
2022-11-29T18:24:43.481Z,20.70
2022-11-29T18:27:11.805Z,20.70
2022-11-29T18:29:39.921Z,20.70
2022-11-29T18:32:08.151Z,20.70
2022-11-29T18:34:36.388Z,20.70
2022-11-29T18:37:07.933Z,20.70
2022-11-29T18:39:39.361Z,20.70
2022-11-29T18:42:07.535Z,20.70
2022-11-29T18:44:35.699Z,20.60
2022-11-29T18:47:03.987Z,20.60
2022-11-29T18:49:32.148Z,20.60
2022-11-29T18:52:00.314Z,20.60
2022-11-29T18:54:31.009Z,20.60
2022-11-29T18:56:59.520Z,20.60
2022-11-29T18:59:27.713Z,20.60
2022-11-29T19:01:56.735Z,20.60
2022-11-29T19:04:25.055Z,20.60
2022-11-29T19:06:53.239Z,20.60
2022-11-29T19:09:23.258Z,20.60
2022-11-29T19:11:52.848Z,20.60
2022-11-29T19:14:21.484Z,20.60
2022-11-29T19:16:50.592Z,20.60
2022-11-29T19:19:19.890Z,20.60
2022-11-29T19:21:48.779Z,20.60
2022-11-29T19:24:18.166Z,20.60
2022-11-29T19:26:49.655Z,20.60
2022-11-29T19:29:20.327Z,20.60
2022-11-29T19:31:50.299Z,20.60
2022-11-29T19:34:18.635Z,20.60
2022-11-29T19:36:46.866Z,20.60
2022-11-29T19:39:16.926Z,20.60
2022-11-29T19:41:47.583Z,20.60
2022-11-29T19:44:16.070Z,20.60
2022-11-29T19:46:48.744Z,20.60
2022-11-29T19:49:17.388Z,20.60
2022-11-29T19:51:45.603Z,20.60
2022-11-29T19:54:13.788Z,20.60
2022-11-29T19:56:42.193Z,20.60
2022-11-29T19:59:10.520Z,20.60
2022-11-29T20:01:42.423Z,20.60
2022-11-29T20:04:13.905Z,20.60
2022-11-29T20:06:42.531Z,20.60
2022-11-29T20:09:10.989Z,20.60
2022-11-29T20:11:39.545Z,20.60
2022-11-29T20:14:09.269Z,20.60
2022-11-29T20:16:39.257Z,20.60
2022-11-29T20:19:14.187Z,20.60
2022-11-29T20:21:44.855Z,20.60
2022-11-29T20:24:14.460Z,20.60
2022-11-29T20:26:44.817Z,20.60
2022-11-29T20:29:14.183Z,20.60
2022-11-29T20:31:49.661Z,20.60
2022-11-29T20:34:21.663Z,20.60
2022-11-29T20:37:14.380Z,20.60
2022-11-29T20:39:50.804Z,20.60
2022-11-29T20:42:45.552Z,20.60
2022-11-29T20:45:15.801Z,20.60
2022-11-29T20:47:51.104Z,20.60
2022-11-29T20:50:24.095Z,20.60
2022-11-29T20:53:04.654Z,20.60
2022-11-29T20:55:32.925Z,20.60
2022-11-29T20:58:01.222Z,20.60
2022-11-29T21:00:29.451Z,20.60
2022-11-29T21:02:57.659Z,20.60
2022-11-29T21:05:28.031Z,20.60
2022-11-29T21:07:56.252Z,20.60
2022-11-29T21:10:24.621Z,20.60
2022-11-29T21:12:53.363Z,20.60
2022-11-29T21:15:22.631Z,20.60
2022-11-29T21:17:54.938Z,20.60
2022-11-29T21:20:26.883Z,20.60
2022-11-29T21:23:01.971Z,20.60
2022-11-29T21:25:43.043Z,20.60
2022-11-29T21:28:14.669Z,20.60
2022-11-29T21:30:44.581Z,20.60
2022-11-29T21:33:14.737Z,20.60
2022-11-29T21:35:44.357Z,20.60
2022-11-29T21:38:17.166Z,20.60
2022-11-29T21:40:45.374Z,20.60
2022-11-29T21:43:13.555Z,20.60
2022-11-29T21:45:41.779Z,20.60
2022-11-29T21:48:30.641Z,20.60
2022-11-29T21:51:00.166Z,20.60
2022-11-29T21:53:28.979Z,20.50
2022-11-29T21:55:58.516Z,20.50
2022-11-29T21:58:27.130Z,20.60
2022-11-29T22:00:55.402Z,20.50
2022-11-29T22:03:23.626Z,20.60
2022-11-29T22:05:51.809Z,20.50
2022-11-29T22:08:21.327Z,20.60
2022-11-29T22:10:49.519Z,20.60
2022-11-29T22:13:17.668Z,20.50
2022-11-29T22:15:45.859Z,20.50
2022-11-29T22:18:14.037Z,20.50
2022-11-29T22:20:42.216Z,20.50
2022-11-29T22:23:10.792Z,20.60
2022-11-29T22:25:40.679Z,20.60
2022-11-29T22:28:08.976Z,20.50
2022-11-29T22:30:37.182Z,20.60
2022-11-29T22:33:10.265Z,20.60
2022-11-29T22:35:44.009Z,20.60
2022-11-29T22:38:12.233Z,20.50
2022-11-29T22:40:41.770Z,20.50
2022-11-29T22:43:09.956Z,20.50
2022-11-29T22:45:38.172Z,20.50
2022-11-29T22:48:07.729Z,20.50
2022-11-29T22:50:35.899Z,20.50
2022-11-29T22:53:04.084Z,20.50
2022-11-29T22:55:32.220Z,20.50
2022-11-29T22:58:01.810Z,20.50
2022-11-29T23:00:30.251Z,20.50
2022-11-29T23:02:58.618Z,20.50
2022-11-29T23:05:31.961Z,20.50
2022-11-29T23:08:00.681Z,20.50
2022-11-29T23:10:28.866Z,20.50
2022-11-29T23:12:56.979Z,20.50
2022-11-29T23:15:26.758Z,20.50
2022-11-29T23:17:54.947Z,20.50
2022-11-29T23:20:23.088Z,20.50
2022-11-29T23:22:51.219Z,20.50
2022-11-29T23:25:19.418Z,20.50
2022-11-29T23:27:47.605Z,20.50
2022-11-29T23:30:16.882Z,20.50
2022-11-29T23:32:46.362Z,20.50
2022-11-29T23:35:14.591Z,20.50
2022-11-29T23:37:42.764Z,20.50
2022-11-29T23:40:11.899Z,20.50
2022-11-29T23:42:43.633Z,20.50
2022-11-29T23:45:14.750Z,20.50
2022-11-29T23:47:42.878Z,20.50
2022-11-29T23:50:13.062Z,20.50
2022-11-29T23:52:41.291Z,20.50
2022-11-29T23:55:12.258Z,20.50
2022-11-29T23:57:40.442Z,20.50
